sensor_id;sensor_type;location;lat;lon;timestamp;pressure;altitude;pressure_sealevel;temperature;humidity
9187;BME280;7273;48.902;9.410;2023-04-20T00:00:06;98009.00;;;5.16;65.93
9187;BME280;7273;48.902;9.410;2023-04-20T00:02:38;98008.44;;;5.14;65.82
9187;BME280;7273;48.902;9.410;2023-04-20T00:05:08;98004.94;;;5.13;66.03
9187;BME280;7273;48.902;9.410;2023-04-20T00:07:35;98004.63;;;5.10;65.85
9187;BME280;7273;48.902;9.410;2023-04-20T00:10:01;98003.94;;;5.03;65.95
9187;BME280;7273;48.902;9.410;2023-04-20T00:12:28;97994.78;;;4.99;65.96
9187;BME280;7273;48.902;9.410;2023-04-20T00:14:54;97992.91;;;4.99;65.76
9187;BME280;7273;48.902;9.410;2023-04-20T00:17:19;97991.28;;;4.98;65.94
9187;BME280;7273;48.902;9.410;2023-04-20T00:19:45;97989.69;;;4.97;65.80
9187;BME280;7273;48.902;9.410;2023-04-20T00:22:12;97996.47;;;4.88;66.21
9187;BME280;7273;48.902;9.410;2023-04-20T00:24:37;97981.47;;;4.87;66.18
9187;BME280;7273;48.902;9.410;2023-04-20T00:27:03;97981.56;;;4.92;66.17
9187;BME280;7273;48.902;9.410;2023-04-20T00:29:29;97974.22;;;4.88;66.30
9187;BME280;7273;48.902;9.410;2023-04-20T00:31:54;97973.03;;;4.95;65.93
9187;BME280;7273;48.902;9.410;2023-04-20T00:34:20;97966.19;;;4.88;66.14
9187;BME280;7273;48.902;9.410;2023-04-20T00:36:46;97961.66;;;4.88;66.29
9187;BME280;7273;48.902;9.410;2023-04-20T00:39:12;97958.88;;;4.83;66.14
9187;BME280;7273;48.902;9.410;2023-04-20T00:41:37;97951.56;;;4.79;66.22
9187;BME280;7273;48.902;9.410;2023-04-20T00:44:04;97950.19;;;4.76;66.24
9187;BME280;7273;48.902;9.410;2023-04-20T00:46:31;97951.00;;;4.77;66.21
9187;BME280;7273;48.902;9.410;2023-04-20T00:48:56;97953.00;;;4.70;66.10
9187;BME280;7273;48.902;9.410;2023-04-20T00:51:22;97952.56;;;4.73;66.22
9187;BME280;7273;48.902;9.410;2023-04-20T00:53:48;97952.84;;;4.76;66.27
9187;BME280;7273;48.902;9.410;2023-04-20T00:56:15;97949.22;;;4.66;66.05
9187;BME280;7273;48.902;9.410;2023-04-20T00:58:41;97947.97;;;4.57;66.20
9187;BME280;7273;48.902;9.410;2023-04-20T01:01:09;97941.16;;;4.49;66.30
9187;BME280;7273;48.902;9.410;2023-04-20T01:03:35;97937.66;;;4.49;66.56
9187;BME280;7273;48.902;9.410;2023-04-20T01:06:01;97938.13;;;4.46;66.10
9187;BME280;7273;48.902;9.410;2023-04-20T01:08:27;97932.19;;;4.44;66.69
9187;BME280;7273;48.902;9.410;2023-04-20T01:10:53;97927.56;;;4.39;66.72
9187;BME280;7273;48.902;9.410;2023-04-20T01:13:19;97921.38;;;4.22;66.91
9187;BME280;7273;48.902;9.410;2023-04-20T01:15:45;97921.53;;;4.32;66.80
9187;BME280;7273;48.902;9.410;2023-04-20T01:18:10;97917.41;;;4.25;66.58
9187;BME280;7273;48.902;9.410;2023-04-20T01:20:36;97919.69;;;4.33;66.69
9187;BME280;7273;48.902;9.410;2023-04-20T01:23:02;97915.56;;;4.25;66.74
9187;BME280;7273;48.902;9.410;2023-04-20T01:25:28;97913.31;;;4.34;66.65
9187;BME280;7273;48.902;9.410;2023-04-20T01:27:54;97900.38;;;4.31;66.68
9187;BME280;7273;48.902;9.410;2023-04-20T01:30:20;97909.84;;;4.22;66.56
9187;BME280;7273;48.902;9.410;2023-04-20T01:32:46;97900.22;;;4.21;66.91
9187;BME280;7273;48.902;9.410;2023-04-20T01:35:12;97900.91;;;4.16;66.95
9187;BME280;7273;48.902;9.410;2023-04-20T01:37:39;97897.00;;;4.07;67.15
9187;BME280;7273;48.902;9.410;2023-04-20T01:40:08;97888.75;;;4.08;66.98
9187;BME280;7273;48.902;9.410;2023-04-20T01:42:34;97877.38;;;4.01;66.76
9187;BME280;7273;48.902;9.410;2023-04-20T01:44:59;97869.09;;;4.03;66.98
9187;BME280;7273;48.902;9.410;2023-04-20T01:47:25;97867.50;;;4.02;67.04
9187;BME280;7273;48.902;9.410;2023-04-20T01:49:51;97868.22;;;3.97;66.84
9187;BME280;7273;48.902;9.410;2023-04-20T01:52:16;97866.91;;;4.00;67.18
9187;BME280;7273;48.902;9.410;2023-04-20T01:54:41;97869.50;;;3.95;66.95
9187;BME280;7273;48.902;9.410;2023-04-20T01:57:07;97861.69;;;3.93;66.81
9187;BME280;7273;48.902;9.410;2023-04-20T01:59:32;97867.06;;;3.93;67.28
9187;BME280;7273;48.902;9.410;2023-04-20T02:01:58;97867.88;;;3.94;66.98
9187;BME280;7273;48.902;9.410;2023-04-20T02:04:23;97862.91;;;3.86;67.24
9187;BME280;7273;48.902;9.410;2023-04-20T02:06:49;97863.91;;;3.96;67.18
9187;BME280;7273;48.902;9.410;2023-04-20T02:09:14;97875.22;;;3.87;67.28
9187;BME280;7273;48.902;9.410;2023-04-20T02:11:40;97865.44;;;3.92;66.89
9187;BME280;7273;48.902;9.410;2023-04-20T02:14:05;97860.38;;;3.79;67.04
9187;BME280;7273;48.902;9.410;2023-04-20T02:16:31;97858.50;;;3.80;67.14
9187;BME280;7273;48.902;9.410;2023-04-20T02:18:56;97852.59;;;3.78;67.37
9187;BME280;7273;48.902;9.410;2023-04-20T02:21:22;97849.91;;;3.78;67.24
9187;BME280;7273;48.902;9.410;2023-04-20T02:23:47;97849.59;;;3.74;67.12
9187;BME280;7273;48.902;9.410;2023-04-20T02:26:13;97843.41;;;3.74;66.94
9187;BME280;7273;48.902;9.410;2023-04-20T02:28:38;97841.69;;;3.68;67.05
9187;BME280;7273;48.902;9.410;2023-04-20T02:31:04;97836.69;;;3.71;67.22
9187;BME280;7273;48.902;9.410;2023-04-20T02:33:29;97836.84;;;3.65;67.49
9187;BME280;7273;48.902;9.410;2023-04-20T02:35:55;97834.84;;;3.60;67.18
9187;BME280;7273;48.902;9.410;2023-04-20T02:38:20;97828.00;;;3.64;67.36
9187;BME280;7273;48.902;9.410;2023-04-20T02:40:46;97830.09;;;3.62;67.30
9187;BME280;7273;48.902;9.410;2023-04-20T02:43:11;97824.97;;;3.61;67.53
9187;BME280;7273;48.902;9.410;2023-04-20T02:45:36;97822.41;;;3.66;67.65
9187;BME280;7273;48.902;9.410;2023-04-20T02:48:02;97822.53;;;3.59;67.75
9187;BME280;7273;48.902;9.410;2023-04-20T02:50:27;97829.03;;;3.63;67.70
9187;BME280;7273;48.902;9.410;2023-04-20T02:52:53;97823.56;;;3.70;67.71
9187;BME280;7273;48.902;9.410;2023-04-20T02:55:18;97817.69;;;3.56;67.34
9187;BME280;7273;48.902;9.410;2023-04-20T02:57:44;97820.38;;;3.45;67.86
9187;BME280;7273;48.902;9.410;2023-04-20T03:00:10;97830.19;;;3.16;67.81
9187;BME280;7273;48.902;9.410;2023-04-20T03:02:38;97827.22;;;3.01;68.61
9187;BME280;7273;48.902;9.410;2023-04-20T03:05:03;97810.94;;;3.14;68.11
9187;BME280;7273;48.902;9.410;2023-04-20T03:07:29;97815.13;;;3.10;68.37
9187;BME280;7273;48.902;9.410;2023-04-20T03:09:55;97807.84;;;2.94;68.11
9187;BME280;7273;48.902;9.410;2023-04-20T03:12:21;97805.16;;;2.94;68.18
9187;BME280;7273;48.902;9.410;2023-04-20T03:14:47;97805.88;;;3.01;68.27
9187;BME280;7273;48.902;9.410;2023-04-20T03:17:12;97809.44;;;2.95;68.64
9187;BME280;7273;48.902;9.410;2023-04-20T03:19:38;97810.03;;;2.97;68.25
9187;BME280;7273;48.902;9.410;2023-04-20T03:22:03;97806.88;;;3.00;68.66
9187;BME280;7273;48.902;9.410;2023-04-20T03:24:29;97810.50;;;3.06;68.54
9187;BME280;7273;48.902;9.410;2023-04-20T03:26:54;97813.50;;;3.09;68.51
9187;BME280;7273;48.902;9.410;2023-04-20T03:29:20;97812.34;;;3.05;68.00
9187;BME280;7273;48.902;9.410;2023-04-20T03:31:45;97806.88;;;3.12;68.12
9187;BME280;7273;48.902;9.410;2023-04-20T03:34:11;97801.19;;;3.08;68.46
9187;BME280;7273;48.902;9.410;2023-04-20T03:36:36;97804.69;;;3.09;68.25
9187;BME280;7273;48.902;9.410;2023-04-20T03:39:02;97807.94;;;2.99;67.98
9187;BME280;7273;48.902;9.410;2023-04-20T03:41:29;97813.63;;;3.03;68.27
9187;BME280;7273;48.902;9.410;2023-04-20T03:43:55;97808.84;;;3.05;67.90
9187;BME280;7273;48.902;9.410;2023-04-20T03:46:20;97810.72;;;3.04;68.31
9187;BME280;7273;48.902;9.410;2023-04-20T03:48:46;97806.00;;;2.95;68.07
9187;BME280;7273;48.902;9.410;2023-04-20T03:51:11;97799.13;;;2.99;68.41
9187;BME280;7273;48.902;9.410;2023-04-20T03:53:36;97803.06;;;2.96;68.53
9187;BME280;7273;48.902;9.410;2023-04-20T03:56:02;97795.63;;;2.98;68.36
9187;BME280;7273;48.902;9.410;2023-04-20T03:58:27;97792.16;;;2.98;68.71
9187;BME280;7273;48.902;9.410;2023-04-20T04:01:00;97791.09;;;2.99;68.72
9187;BME280;7273;48.902;9.410;2023-04-20T04:03:26;97789.50;;;2.98;68.79
9187;BME280;7273;48.902;9.410;2023-04-20T04:05:51;97784.94;;;2.98;68.87
9187;BME280;7273;48.902;9.410;2023-04-20T04:08:17;97785.53;;;3.00;68.96
9187;BME280;7273;48.902;9.410;2023-04-20T04:10:42;97784.69;;;3.00;68.39
9187;BME280;7273;48.902;9.410;2023-04-20T04:13:07;97785.88;;;2.92;68.39
9187;BME280;7273;48.902;9.410;2023-04-20T04:15:33;97777.63;;;2.94;68.83
9187;BME280;7273;48.902;9.410;2023-04-20T04:17:58;97780.53;;;2.92;68.76
9187;BME280;7273;48.902;9.410;2023-04-20T04:20:23;97777.75;;;2.87;68.64
9187;BME280;7273;48.902;9.410;2023-04-20T04:22:49;97780.78;;;2.91;68.55
9187;BME280;7273;48.902;9.410;2023-04-20T04:25:16;97782.63;;;2.90;68.52
9187;BME280;7273;48.902;9.410;2023-04-20T04:27:42;97781.03;;;2.89;68.46
9187;BME280;7273;48.902;9.410;2023-04-20T04:30:08;97782.03;;;2.88;68.93
9187;BME280;7273;48.902;9.410;2023-04-20T04:32:35;97790.06;;;2.88;68.45
9187;BME280;7273;48.902;9.410;2023-04-20T04:35:00;97787.84;;;2.85;68.78
9187;BME280;7273;48.902;9.410;2023-04-20T04:37:26;97779.38;;;2.88;68.49
9187;BME280;7273;48.902;9.410;2023-04-20T04:39:52;97780.19;;;2.89;68.65
9187;BME280;7273;48.902;9.410;2023-04-20T04:42:17;97778.13;;;2.91;68.49
9187;BME280;7273;48.902;9.410;2023-04-20T04:44:43;97782.97;;;2.94;68.93
9187;BME280;7273;48.902;9.410;2023-04-20T04:47:09;97777.28;;;2.90;68.91
9187;BME280;7273;48.902;9.410;2023-04-20T04:49:36;97776.13;;;2.98;68.56
9187;BME280;7273;48.902;9.410;2023-04-20T04:52:01;97777.06;;;2.92;68.85
9187;BME280;7273;48.902;9.410;2023-04-20T04:54:26;97778.94;;;2.91;68.62
9187;BME280;7273;48.902;9.410;2023-04-20T04:56:52;97776.13;;;2.98;68.88
9187;BME280;7273;48.902;9.410;2023-04-20T04:59:17;97777.41;;;2.95;69.06
9187;BME280;7273;48.902;9.410;2023-04-20T05:01:43;97774.72;;;2.95;68.70
9187;BME280;7273;48.902;9.410;2023-04-20T05:04:08;97769.75;;;2.99;69.38
9187;BME280;7273;48.902;9.410;2023-04-20T05:06:33;97779.47;;;3.05;68.87
9187;BME280;7273;48.902;9.410;2023-04-20T05:08:59;97774.47;;;3.08;69.05
9187;BME280;7273;48.902;9.410;2023-04-20T05:11:24;97779.34;;;3.11;69.04
9187;BME280;7273;48.902;9.410;2023-04-20T05:13:49;97782.31;;;3.26;68.81
9187;BME280;7273;48.902;9.410;2023-04-20T05:16:15;97786.16;;;3.30;68.91
9187;BME280;7273;48.902;9.410;2023-04-20T05:18:41;97782.53;;;3.36;69.05
9187;BME280;7273;48.902;9.410;2023-04-20T05:21:06;97786.91;;;3.42;68.93
9187;BME280;7273;48.902;9.410;2023-04-20T05:23:31;97780.75;;;3.53;68.79
9187;BME280;7273;48.902;9.410;2023-04-20T05:25:57;97785.13;;;3.59;68.60
9187;BME280;7273;48.902;9.410;2023-04-20T05:28:22;97779.63;;;3.66;68.74
9187;BME280;7273;48.902;9.410;2023-04-20T05:30:48;97786.78;;;3.77;68.85
9187;BME280;7273;48.902;9.410;2023-04-20T05:33:13;97785.00;;;3.82;68.72
9187;BME280;7273;48.902;9.410;2023-04-20T05:35:38;97774.91;;;3.84;69.06
9187;BME280;7273;48.902;9.410;2023-04-20T05:38:05;97781.94;;;3.90;68.81
9187;BME280;7273;48.902;9.410;2023-04-20T05:40:32;97783.06;;;3.94;68.59
9187;BME280;7273;48.902;9.410;2023-04-20T05:42:59;97783.97;;;4.00;68.36
9187;BME280;7273;48.902;9.410;2023-04-20T05:45:25;97781.72;;;4.08;68.60
9187;BME280;7273;48.902;9.410;2023-04-20T05:47:56;97782.88;;;4.29;68.24
9187;BME280;7273;48.902;9.410;2023-04-20T05:50:23;97790.97;;;4.67;67.81
9187;BME280;7273;48.902;9.410;2023-04-20T05:52:49;97791.75;;;4.84;67.56
9187;BME280;7273;48.902;9.410;2023-04-20T05:55:14;97781.66;;;4.91;67.16
9187;BME280;7273;48.902;9.410;2023-04-20T05:57:40;97779.38;;;5.00;67.37
9187;BME280;7273;48.902;9.410;2023-04-20T06:00:09;97784.53;;;5.06;67.55
9187;BME280;7273;48.902;9.410;2023-04-20T06:02:35;97783.66;;;5.01;67.44
9187;BME280;7273;48.902;9.410;2023-04-20T06:05:00;97780.00;;;5.77;67.33
9187;BME280;7273;48.902;9.410;2023-04-20T06:07:26;97770.75;;;6.47;66.49
9187;BME280;7273;48.902;9.410;2023-04-20T06:09:51;97771.19;;;7.18;66.94
9187;BME280;7273;48.902;9.410;2023-04-20T06:12:17;97762.00;;;7.80;67.41
9187;BME280;7273;48.902;9.410;2023-04-20T06:14:42;97766.94;;;8.29;67.87
9187;BME280;7273;48.902;9.410;2023-04-20T06:17:08;97766.13;;;8.58;69.46
9187;BME280;7273;48.902;9.410;2023-04-20T06:19:33;97765.00;;;8.99;70.15
9187;BME280;7273;48.902;9.410;2023-04-20T06:21:59;97764.81;;;9.44;72.01
9187;BME280;7273;48.902;9.410;2023-04-20T06:24:24;97765.78;;;9.79;73.90
9187;BME280;7273;48.902;9.410;2023-04-20T06:26:52;97761.88;;;10.00;74.97
9187;BME280;7273;48.902;9.410;2023-04-20T06:29:17;97763.94;;;10.18;76.43
9187;BME280;7273;48.902;9.410;2023-04-20T06:31:42;97755.16;;;10.36;77.28
9187;BME280;7273;48.902;9.410;2023-04-20T06:34:08;97760.53;;;10.41;77.52
9187;BME280;7273;48.902;9.410;2023-04-20T06:36:33;97754.78;;;10.09;76.78
9187;BME280;7273;48.902;9.410;2023-04-20T06:38:59;97769.50;;;9.83;75.92
9187;BME280;7273;48.902;9.410;2023-04-20T06:41:24;97752.72;;;9.42;74.43
9187;BME280;7273;48.902;9.410;2023-04-20T06:43:49;97758.94;;;9.37;72.96
9187;BME280;7273;48.902;9.410;2023-04-20T06:46:15;97759.31;;;9.06;72.11
9187;BME280;7273;48.902;9.410;2023-04-20T06:48:41;97748.78;;;9.04;71.43
9187;BME280;7273;48.902;9.410;2023-04-20T06:51:06;97755.28;;;8.98;70.38
9187;BME280;7273;48.902;9.410;2023-04-20T06:53:31;97755.03;;;8.85;69.71
9187;BME280;7273;48.902;9.410;2023-04-20T06:55:57;97752.34;;;8.95;69.32
9187;BME280;7273;48.902;9.410;2023-04-20T06:58:22;97756.63;;;9.01;69.18
9187;BME280;7273;48.902;9.410;2023-04-20T07:00:48;97747.72;;;9.00;68.61
9187;BME280;7273;48.902;9.410;2023-04-20T07:03:13;97746.63;;;9.11;68.21
9187;BME280;7273;48.902;9.410;2023-04-20T07:05:38;97754.50;;;8.93;68.59
9187;BME280;7273;48.902;9.410;2023-04-20T07:08:04;97758.22;;;9.02;67.51
9187;BME280;7273;48.902;9.410;2023-04-20T07:10:29;97750.19;;;8.87;67.03
9187;BME280;7273;48.902;9.410;2023-04-20T07:12:55;97747.22;;;8.93;67.71
9187;BME280;7273;48.902;9.410;2023-04-20T07:15:20;97748.56;;;8.76;67.93
9187;BME280;7273;48.902;9.410;2023-04-20T07:17:47;97748.06;;;8.74;67.60
9187;BME280;7273;48.902;9.410;2023-04-20T07:20:12;97736.75;;;8.52;67.04
9187;BME280;7273;48.902;9.410;2023-04-20T07:22:38;97739.19;;;8.38;67.14
9187;BME280;7273;48.902;9.410;2023-04-20T07:25:05;97746.22;;;8.39;67.40
9187;BME280;7273;48.902;9.410;2023-04-20T07:27:34;97742.16;;;8.37;66.59
9187;BME280;7273;48.902;9.410;2023-04-20T07:30:00;97745.66;;;8.37;66.93
9187;BME280;7273;48.902;9.410;2023-04-20T07:32:26;97744.59;;;8.28;67.52
9187;BME280;7273;48.902;9.410;2023-04-20T07:34:51;97750.22;;;8.37;67.00
9187;BME280;7273;48.902;9.410;2023-04-20T07:37:17;97744.06;;;8.41;66.97
9187;BME280;7273;48.902;9.410;2023-04-20T07:39:42;97747.53;;;8.57;66.47
9187;BME280;7273;48.902;9.410;2023-04-20T07:42:08;97737.00;;;8.70;65.90
9187;BME280;7273;48.902;9.410;2023-04-20T07:44:33;97750.78;;;8.59;65.59
9187;BME280;7273;48.902;9.410;2023-04-20T07:46:59;97742.94;;;8.67;65.22
9187;BME280;7273;48.902;9.410;2023-04-20T07:49:25;97744.56;;;8.73;65.05
9187;BME280;7273;48.902;9.410;2023-04-20T07:51:51;97742.38;;;8.90;64.99
9187;BME280;7273;48.902;9.410;2023-04-20T07:54:16;97741.56;;;8.90;64.92
9187;BME280;7273;48.902;9.410;2023-04-20T07:56:42;97741.81;;;8.93;64.89
9187;BME280;7273;48.902;9.410;2023-04-20T07:59:07;97736.19;;;8.80;64.99
9187;BME280;7273;48.902;9.410;2023-04-20T08:01:33;97745.59;;;8.77;64.83
9187;BME280;7273;48.902;9.410;2023-04-20T08:03:59;97744.00;;;8.66;64.64
9187;BME280;7273;48.902;9.410;2023-04-20T08:06:24;97735.94;;;8.66;65.10
9187;BME280;7273;48.902;9.410;2023-04-20T08:08:51;97739.72;;;8.65;64.96
9187;BME280;7273;48.902;9.410;2023-04-20T08:11:16;97742.41;;;8.70;64.64
9187;BME280;7273;48.902;9.410;2023-04-20T08:13:42;97739.44;;;8.67;64.52
9187;BME280;7273;48.902;9.410;2023-04-20T08:16:07;97734.59;;;8.54;64.35
9187;BME280;7273;48.902;9.410;2023-04-20T08:18:33;97737.28;;;8.64;64.27
9187;BME280;7273;48.902;9.410;2023-04-20T08:20:59;97728.09;;;8.70;64.62
9187;BME280;7273;48.902;9.410;2023-04-20T08:23:25;97735.09;;;8.71;64.40
9187;BME280;7273;48.902;9.410;2023-04-20T08:25:55;97744.28;;;8.65;64.78
9187;BME280;7273;48.902;9.410;2023-04-20T08:28:22;97734.06;;;8.52;64.47
9187;BME280;7273;48.902;9.410;2023-04-20T08:30:48;97727.84;;;8.56;64.82
9187;BME280;7273;48.902;9.410;2023-04-20T08:33:14;97735.41;;;8.59;64.34
9187;BME280;7273;48.902;9.410;2023-04-20T08:35:39;97730.03;;;8.39;64.90
9187;BME280;7273;48.902;9.410;2023-04-20T08:38:05;97733.00;;;8.38;64.97
9187;BME280;7273;48.902;9.410;2023-04-20T08:40:31;97721.97;;;8.39;64.64
9187;BME280;7273;48.902;9.410;2023-04-20T08:42:57;97742.97;;;8.37;64.48
9187;BME280;7273;48.902;9.410;2023-04-20T08:45:25;97737.31;;;8.34;64.84
9187;BME280;7273;48.902;9.410;2023-04-20T08:47:51;97733.28;;;8.41;64.60
9187;BME280;7273;48.902;9.410;2023-04-20T08:50:18;97740.28;;;8.32;64.54
9187;BME280;7273;48.902;9.410;2023-04-20T08:52:44;97733.28;;;8.41;64.88
9187;BME280;7273;48.902;9.410;2023-04-20T08:55:13;97744.84;;;8.42;64.37
9187;BME280;7273;48.902;9.410;2023-04-20T08:57:39;97735.16;;;8.46;64.63
9187;BME280;7273;48.902;9.410;2023-04-20T09:00:07;97732.47;;;8.41;64.85
9187;BME280;7273;48.902;9.410;2023-04-20T09:02:57;97736.50;;;8.43;64.45
9187;BME280;7273;48.902;9.410;2023-04-20T09:05:25;97729.50;;;8.37;64.78
9187;BME280;7273;48.902;9.410;2023-04-20T09:07:59;97741.38;;;8.36;64.33
9187;BME280;7273;48.902;9.410;2023-04-20T09:10:38;97729.50;;;8.32;64.78
9187;BME280;7273;48.902;9.410;2023-04-20T09:13:04;97725.72;;;8.43;64.08
9187;BME280;7273;48.902;9.410;2023-04-20T09:15:30;97734.06;;;8.42;64.22
9187;BME280;7273;48.902;9.410;2023-04-20T09:17:56;97728.94;;;8.45;64.18
9187;BME280;7273;48.902;9.410;2023-04-20T09:20:32;97726.53;;;8.49;64.03
9187;BME280;7273;48.902;9.410;2023-04-20T09:23:18;97731.63;;;8.55;64.17
9187;BME280;7273;48.902;9.410;2023-04-20T09:25:50;97727.63;;;8.43;64.64
9187;BME280;7273;48.902;9.410;2023-04-20T09:28:17;97723.56;;;8.55;63.97
9187;BME280;7273;48.902;9.410;2023-04-20T09:30:47;97723.00;;;8.58;64.21
9187;BME280;7273;48.902;9.410;2023-04-20T09:33:14;97727.56;;;8.63;64.04
9187;BME280;7273;48.902;9.410;2023-04-20T09:35:41;97713.31;;;8.62;64.13
9187;BME280;7273;48.902;9.410;2023-04-20T09:38:08;97706.56;;;8.65;63.87
9187;BME280;7273;48.902;9.410;2023-04-20T09:40:34;97706.00;;;8.68;64.19
9187;BME280;7273;48.902;9.410;2023-04-20T09:43:16;97715.44;;;8.75;63.91
9187;BME280;7273;48.902;9.410;2023-04-20T09:45:42;97711.94;;;8.70;64.14
9187;BME280;7273;48.902;9.410;2023-04-20T09:48:08;97705.97;;;8.78;64.08
9187;BME280;7273;48.902;9.410;2023-04-20T09:50:36;97713.53;;;8.76;63.93
9187;BME280;7273;48.902;9.410;2023-04-20T09:53:04;97707.34;;;8.75;63.83
9187;BME280;7273;48.902;9.410;2023-04-20T09:55:33;97701.69;;;8.82;63.68
9187;BME280;7273;48.902;9.410;2023-04-20T09:58:02;97703.28;;;8.83;63.73
9187;BME280;7273;48.902;9.410;2023-04-20T10:00:28;97697.34;;;8.86;63.92
9187;BME280;7273;48.902;9.410;2023-04-20T10:02:55;97700.28;;;8.89;63.39
9187;BME280;7273;48.902;9.410;2023-04-20T10:05:32;97706.22;;;8.91;63.61
9187;BME280;7273;48.902;9.410;2023-04-20T10:07:58;97705.94;;;8.93;63.41
9187;BME280;7273;48.902;9.410;2023-04-20T10:10:25;97709.19;;;8.90;63.58
9187;BME280;7273;48.902;9.410;2023-04-20T10:12:59;97708.38;;;8.89;63.44
9187;BME280;7273;48.902;9.410;2023-04-20T10:15:38;97709.78;;;8.77;63.46
9187;BME280;7273;48.902;9.410;2023-04-20T10:18:21;97704.38;;;8.72;63.60
9187;BME280;7273;48.902;9.410;2023-04-20T10:20:51;97698.19;;;8.71;63.68
9187;BME280;7273;48.902;9.410;2023-04-20T10:23:27;97707.91;;;8.72;63.54
9187;BME280;7273;48.902;9.410;2023-04-20T10:25:57;97696.31;;;8.67;63.79
9187;BME280;7273;48.902;9.410;2023-04-20T10:28:23;97706.28;;;8.61;63.56
9187;BME280;7273;48.902;9.410;2023-04-20T10:30:49;97700.38;;;8.54;63.98
9187;BME280;7273;48.902;9.410;2023-04-20T10:33:15;97692.59;;;8.53;64.22
9187;BME280;7273;48.902;9.410;2023-04-20T10:35:46;97689.56;;;8.64;64.17
9187;BME280;7273;48.902;9.410;2023-04-20T10:38:12;97693.34;;;8.68;64.21
9187;BME280;7273;48.902;9.410;2023-04-20T10:40:38;97680.91;;;8.77;64.10
9187;BME280;7273;48.902;9.410;2023-04-20T10:43:03;97686.38;;;8.57;64.20
9187;BME280;7273;48.902;9.410;2023-04-20T10:45:36;97676.13;;;8.59;64.49
9187;BME280;7273;48.902;9.410;2023-04-20T10:48:09;97673.44;;;8.54;64.42
9187;BME280;7273;48.902;9.410;2023-04-20T10:50:34;97670.75;;;8.49;64.35
9187;BME280;7273;48.902;9.410;2023-04-20T10:53:01;97667.78;;;8.56;64.69
9187;BME280;7273;48.902;9.410;2023-04-20T10:55:27;97665.06;;;8.61;64.08
9187;BME280;7273;48.902;9.410;2023-04-20T10:57:53;97657.22;;;8.64;64.66
9187;BME280;7273;48.902;9.410;2023-04-20T11:00:26;97655.59;;;8.68;64.26
9187;BME280;7273;48.902;9.410;2023-04-20T11:02:54;97652.34;;;8.71;64.69
9187;BME280;7273;48.902;9.410;2023-04-20T11:05:24;97653.41;;;8.80;64.49
9187;BME280;7273;48.902;9.410;2023-04-20T11:07:54;97644.50;;;8.85;64.27
9187;BME280;7273;48.902;9.410;2023-04-20T11:10:23;97648.00;;;8.85;64.13
9187;BME280;7273;48.902;9.410;2023-04-20T11:12:49;97632.88;;;8.89;64.22
9187;BME280;7273;48.902;9.410;2023-04-20T11:15:16;97638.22;;;8.99;63.94
9187;BME280;7273;48.902;9.410;2023-04-20T11:17:42;97627.66;;;9.13;64.04
9187;BME280;7273;48.902;9.410;2023-04-20T11:20:09;97620.88;;;9.15;64.36
9187;BME280;7273;48.902;9.410;2023-04-20T11:22:40;97618.91;;;9.36;64.19
9187;BME280;7273;48.902;9.410;2023-04-20T11:25:07;97605.88;;;9.43;63.89
9187;BME280;7273;48.902;9.410;2023-04-20T11:27:34;97600.31;;;9.68;64.02
9187;BME280;7273;48.902;9.410;2023-04-20T11:30:00;97592.38;;;9.82;63.46
9187;BME280;7273;48.902;9.410;2023-04-20T11:32:30;97584.84;;;10.07;63.44
9187;BME280;7273;48.902;9.410;2023-04-20T11:34:59;97589.06;;;10.47;62.93
9187;BME280;7273;48.902;9.410;2023-04-20T11:37:25;97581.44;;;10.96;62.52
9187;BME280;7273;48.902;9.410;2023-04-20T11:42:25;97581.59;;;11.23;62.01
9187;BME280;7273;48.902;9.410;2023-04-20T11:44:51;97587.22;;;11.08;62.23
9187;BME280;7273;48.902;9.410;2023-04-20T11:47:16;97586.94;;;11.10;62.26
9187;BME280;7273;48.902;9.410;2023-04-20T11:49:42;97590.81;;;11.22;62.02
9187;BME280;7273;48.902;9.410;2023-04-20T11:52:07;97592.38;;;11.10;62.13
9187;BME280;7273;48.902;9.410;2023-04-20T11:54:33;97598.69;;;11.00;62.20
9187;BME280;7273;48.902;9.410;2023-04-20T11:56:59;97606.44;;;10.88;61.96
9187;BME280;7273;48.902;9.410;2023-04-20T11:59:25;97603.31;;;10.76;62.08
9187;BME280;7273;48.902;9.410;2023-04-20T12:01:50;97603.66;;;10.69;62.18
9187;BME280;7273;48.902;9.410;2023-04-20T12:04:16;97613.34;;;10.52;62.36
9187;BME280;7273;48.902;9.410;2023-04-20T12:06:41;97610.88;;;10.27;62.25
9187;BME280;7273;48.902;9.410;2023-04-20T12:09:07;97605.56;;;10.17;62.36
9187;BME280;7273;48.902;9.410;2023-04-20T12:11:32;97612.72;;;10.08;62.79
9187;BME280;7273;48.902;9.410;2023-04-20T12:13:57;97611.94;;;9.97;62.67
9187;BME280;7273;48.902;9.410;2023-04-20T12:16:24;97607.75;;;9.81;62.80
9187;BME280;7273;48.902;9.410;2023-04-20T12:18:50;97616.16;;;9.80;62.90
9187;BME280;7273;48.902;9.410;2023-04-20T12:21:15;97620.50;;;9.76;63.07
9187;BME280;7273;48.902;9.410;2023-04-20T12:23:41;97626.44;;;9.73;63.13
9187;BME280;7273;48.902;9.410;2023-04-20T12:26:08;97623.28;;;9.66;63.14
9187;BME280;7273;48.902;9.410;2023-04-20T12:28:33;97615.19;;;9.66;63.25
9187;BME280;7273;48.902;9.410;2023-04-20T12:30:59;97617.09;;;9.60;62.95
9187;BME280;7273;48.902;9.410;2023-04-20T12:33:24;97619.53;;;9.62;63.24
9187;BME280;7273;48.902;9.410;2023-04-20T12:35:50;97621.41;;;9.61;63.33
9187;BME280;7273;48.902;9.410;2023-04-20T12:38:15;97620.63;;;9.61;63.19
9187;BME280;7273;48.902;9.410;2023-04-20T12:40:41;97613.91;;;9.53;63.31
9187;BME280;7273;48.902;9.410;2023-04-20T12:43:06;97607.13;;;9.61;63.15
9187;BME280;7273;48.902;9.410;2023-04-20T12:45:32;97604.44;;;9.61;63.35
9187;BME280;7273;48.902;9.410;2023-04-20T12:47:58;97610.31;;;9.63;63.59
9187;BME280;7273;48.902;9.410;2023-04-20T12:50:24;97610.34;;;9.57;63.46
9187;BME280;7273;48.902;9.410;2023-04-20T12:52:50;97608.81;;;9.46;63.44
9187;BME280;7273;48.902;9.410;2023-04-20T12:55:23;97610.47;;;9.47;63.24
9187;BME280;7273;48.902;9.410;2023-04-20T12:57:49;97611.22;;;9.53;63.42
9187;BME280;7273;48.902;9.410;2023-04-20T13:00:15;97610.22;;;9.44;63.81
9187;BME280;7273;48.902;9.410;2023-04-20T13:02:41;97603.78;;;9.35;63.79
9187;BME280;7273;48.902;9.410;2023-04-20T13:05:07;97607.84;;;9.32;63.41
9187;BME280;7273;48.902;9.410;2023-04-20T13:07:32;97610.56;;;9.32;63.79
9187;BME280;7273;48.902;9.410;2023-04-20T13:09:59;97599.78;;;9.27;63.58
9187;BME280;7273;48.902;9.410;2023-04-20T13:12:25;97595.97;;;9.33;63.48
9187;BME280;7273;48.902;9.410;2023-04-20T13:14:50;97601.91;;;9.30;63.90
9187;BME280;7273;48.902;9.410;2023-04-20T13:17:16;97607.88;;;9.27;63.83
9187;BME280;7273;48.902;9.410;2023-04-20T13:19:42;97595.47;;;9.26;63.83
9187;BME280;7273;48.902;9.410;2023-04-20T13:22:07;97601.94;;;9.25;63.84
9187;BME280;7273;48.902;9.410;2023-04-20T13:24:33;97595.03;;;9.09;64.08
9187;BME280;7273;48.902;9.410;2023-04-20T13:26:58;97584.78;;;9.11;63.81
9187;BME280;7273;48.902;9.410;2023-04-20T13:29:25;97591.25;;;9.05;64.18